createdAt,value
2017-10-14T00:00:44.108Z,11.18
2017-10-14T00:01:50.289Z,11.38
2017-10-14T00:02:56.579Z,11.60
2017-10-14T00:04:02.752Z,9.73
2017-10-14T00:05:09.073Z,10.70
2017-10-14T00:06:16.086Z,10.20
2017-10-14T00:07:22.634Z,11.30
2017-10-14T00:08:28.992Z,10.65
2017-10-14T00:09:35.248Z,11.63
2017-10-14T00:10:41.561Z,11.43
2017-10-14T00:11:47.890Z,10.40
2017-10-14T00:12:54.088Z,11.60
2017-10-14T00:14:00.777Z,11.55
2017-10-14T00:15:06.910Z,10.30
2017-10-14T00:16:13.225Z,11.43
2017-10-14T00:17:19.423Z,10.35
2017-10-14T00:18:29.423Z,10.65
2017-10-14T00:19:35.681Z,10.05
2017-10-14T00:20:41.941Z,10.60
2017-10-14T00:21:48.161Z,12.10
2017-10-14T00:22:54.177Z,10.75
2017-10-14T00:24:00.170Z,10.90
2017-10-14T00:25:06.627Z,11.05
2017-10-14T00:26:13.499Z,10.38
2017-10-14T00:27:19.873Z,9.95
2017-10-14T00:28:26.024Z,10.15
2017-10-14T00:29:33.060Z,11.05
2017-10-14T00:30:39.325Z,11.65
2017-10-14T00:31:45.474Z,11.88
2017-10-14T00:32:51.697Z,12.13
2017-10-14T00:33:57.899Z,11.65
2017-10-14T00:35:09.306Z,12.93
2017-10-14T00:36:15.445Z,13.82
2017-10-14T00:37:21.686Z,16.37
2017-10-14T00:38:27.850Z,13.60
2017-10-14T00:39:34.058Z,13.85
2017-10-14T00:40:40.862Z,11.73
2017-10-14T00:41:47.454Z,14.18
2017-10-14T00:42:53.578Z,12.02
2017-10-14T00:43:59.813Z,14.50
2017-10-14T00:45:06.059Z,15.13
2017-10-14T00:46:12.241Z,14.55
2017-10-14T00:47:18.489Z,18.48
2017-10-14T00:48:24.657Z,18.55
2017-10-14T00:49:30.874Z,15.63
2017-10-14T00:50:36.495Z,17.12
2017-10-14T00:51:42.759Z,17.70
2017-10-14T00:52:49.037Z,17.73
2017-10-14T00:53:55.188Z,17.42
2017-10-14T00:55:01.992Z,17.70
2017-10-14T00:56:07.512Z,15.15
2017-10-14T00:57:13.370Z,17.30
2017-10-14T00:58:18.627Z,16.40
2017-10-14T00:59:24.086Z,17.00
2017-10-14T01:00:29.681Z,16.45
2017-10-14T01:01:35.098Z,18.23
2017-10-14T01:02:41.304Z,19.60
2017-10-14T01:03:47.172Z,17.55
2017-10-14T01:04:53.040Z,21.35
2017-10-14T01:05:59.247Z,17.77
2017-10-14T01:07:05.395Z,18.17
2017-10-14T01:08:11.899Z,17.85
2017-10-14T01:09:18.082Z,17.85
2017-10-14T01:10:24.185Z,16.35
2017-10-14T01:11:30.516Z,17.75
2017-10-14T01:12:36.661Z,16.85
2017-10-14T01:13:42.865Z,17.55
2017-10-14T01:14:49.107Z,17.60
2017-10-14T01:15:58.289Z,16.80
2017-10-14T01:17:04.306Z,15.95
2017-10-14T01:18:10.465Z,17.45
2017-10-14T01:19:16.314Z,18.90
2017-10-14T01:20:22.520Z,16.85
2017-10-14T01:21:28.000Z,17.42
2017-10-14T01:22:33.264Z,17.23
2017-10-14T01:23:38.859Z,17.50
2017-10-14T01:24:44.342Z,17.10
2017-10-14T01:25:49.869Z,16.33
2017-10-14T01:26:55.668Z,15.52
2017-10-14T01:28:01.046Z,15.05
2017-10-14T01:29:06.527Z,14.05
2017-10-14T01:30:12.212Z,15.40
2017-10-14T01:31:17.549Z,14.15
2017-10-14T01:32:23.465Z,14.87
2017-10-14T01:33:28.957Z,14.40
2017-10-14T01:34:34.196Z,14.65
2017-10-14T01:35:40.217Z,13.52
2017-10-14T01:36:45.557Z,16.12
2017-10-14T01:37:50.850Z,14.02
2017-10-14T01:38:56.730Z,15.48
2017-10-14T01:40:02.165Z,15.63
2017-10-14T01:41:07.904Z,14.93
2017-10-14T01:42:13.184Z,14.57
2017-10-14T01:43:19.113Z,13.77
2017-10-14T01:44:24.604Z,15.13
2017-10-14T01:45:30.158Z,12.95
2017-10-14T01:46:35.454Z,12.93
2017-10-14T01:47:41.309Z,16.52
2017-10-14T01:48:46.739Z,14.65
2017-10-14T01:49:52.225Z,15.20
2017-10-14T01:50:58.506Z,13.32
2017-10-14T01:52:03.725Z,15.05
2017-10-14T01:53:09.271Z,14.40
2017-10-14T01:54:14.723Z,13.23
2017-10-14T01:55:22.563Z,11.57
2017-10-14T01:56:28.497Z,15.73
2017-10-14T01:57:33.810Z,14.00
2017-10-14T01:58:39.268Z,14.48
2017-10-14T01:59:44.547Z,13.75
2017-10-14T02:00:52.635Z,12.98
2017-10-14T02:01:58.696Z,13.35
2017-10-14T02:03:04.691Z,15.50
2017-10-14T02:04:11.061Z,12.90
2017-10-14T02:05:17.331Z,16.33
2017-10-14T02:06:23.632Z,14.55
2017-10-14T02:07:29.949Z,17.25
2017-10-14T02:08:36.164Z,16.20
2017-10-14T02:09:42.216Z,18.12
2017-10-14T02:10:47.812Z,19.65
2017-10-14T02:11:53.959Z,18.00
2017-10-14T02:13:00.182Z,17.75
2017-10-14T02:14:05.544Z,18.10
2017-10-14T02:15:11.588Z,19.33
2017-10-14T02:16:17.762Z,20.60
2017-10-14T02:17:23.984Z,19.10
2017-10-14T02:18:30.196Z,17.85
2017-10-14T02:19:36.456Z,20.98
2017-10-14T02:20:42.758Z,18.23
2017-10-14T02:21:49.079Z,22.98
2017-10-14T02:22:55.244Z,23.45
2017-10-14T02:24:01.628Z,20.08
2017-10-14T02:25:07.809Z,20.55
2017-10-14T02:26:14.024Z,21.23
2017-10-14T02:27:20.288Z,21.45
2017-10-14T02:28:26.786Z,20.05
2017-10-14T02:29:33.056Z,20.62
2017-10-14T02:30:39.324Z,19.77
2017-10-14T02:31:45.679Z,19.70
2017-10-14T02:32:51.755Z,19.60
2017-10-14T02:33:57.779Z,20.12
2017-10-14T02:35:04.147Z,20.23
2017-10-14T02:36:10.522Z,20.23
2017-10-14T02:37:17.508Z,17.75
2017-10-14T02:38:23.757Z,17.48
2017-10-14T02:39:30.027Z,19.25
2017-10-14T02:40:36.140Z,19.52
2017-10-14T02:41:42.354Z,21.15
2017-10-14T02:42:48.783Z,19.45
2017-10-14T02:43:55.679Z,19.75
2017-10-14T02:45:02.209Z,19.05
2017-10-14T02:46:08.643Z,18.75
2017-10-14T02:47:14.827Z,18.65
2017-10-14T02:48:24.150Z,18.87
2017-10-14T02:49:30.468Z,19.40
2017-10-14T02:50:38.650Z,19.30
2017-10-14T02:51:45.609Z,19.75
2017-10-14T02:52:52.343Z,19.05
2017-10-14T02:53:58.483Z,17.77
2017-10-14T02:55:04.735Z,18.95
2017-10-14T02:56:10.952Z,18.58
2017-10-14T02:57:16.941Z,17.65
2017-10-14T02:58:23.156Z,18.05
2017-10-14T02:59:29.385Z,19.25
2017-10-14T03:00:35.551Z,20.12
2017-10-14T03:01:41.581Z,18.15
2017-10-14T03:02:47.895Z,19.35
2017-10-14T03:03:55.047Z,17.65
2017-10-14T03:05:01.076Z,17.40
2017-10-14T03:06:07.239Z,17.73
2017-10-14T03:07:13.448Z,19.20
2017-10-14T03:08:19.785Z,17.85
2017-10-14T03:09:25.990Z,18.10
2017-10-14T03:10:32.047Z,17.98
2017-10-14T03:11:38.288Z,17.50
2017-10-14T03:12:44.484Z,19.15
2017-10-14T03:13:50.702Z,19.15
2017-10-14T03:14:56.724Z,18.60
2017-10-14T03:16:02.969Z,17.60
2017-10-14T03:17:08.937Z,17.50
2017-10-14T03:18:15.268Z,17.92
2017-10-14T03:19:22.159Z,15.90
2017-10-14T03:20:31.860Z,16.60
2017-10-14T03:21:38.089Z,16.70
2017-10-14T03:22:44.271Z,17.55
2017-10-14T03:23:50.493Z,17.05
2017-10-14T03:24:56.735Z,17.70
2017-10-14T03:26:02.893Z,16.98
2017-10-14T03:27:09.149Z,18.15
2017-10-14T03:28:15.898Z,18.90
2017-10-14T03:29:22.066Z,17.95
2017-10-14T03:30:31.594Z,17.95
2017-10-14T03:31:37.728Z,18.02
2017-10-14T03:32:43.998Z,17.12
2017-10-14T03:33:50.153Z,18.75
2017-10-14T03:34:56.193Z,17.95
2017-10-14T03:36:02.677Z,19.73
2017-10-14T03:37:09.032Z,21.20
2017-10-14T03:38:16.390Z,19.50
2017-10-14T03:39:22.557Z,17.00
2017-10-14T03:40:28.736Z,20.58
2017-10-14T03:41:34.845Z,21.83
2017-10-14T03:42:41.085Z,17.90
2017-10-14T03:43:47.311Z,19.70
2017-10-14T03:44:53.465Z,20.25
2017-10-14T03:45:59.678Z,19.90
2017-10-14T03:47:06.746Z,19.83
2017-10-14T03:48:12.915Z,19.95
2017-10-14T03:49:19.165Z,17.95
2017-10-14T03:50:28.952Z,19.52
2017-10-14T03:51:35.149Z,19.50
2017-10-14T03:52:41.472Z,20.15
2017-10-14T03:53:47.673Z,20.00
2017-10-14T03:54:54.014Z,19.52
2017-10-14T03:56:00.180Z,19.85
2017-10-14T03:57:06.994Z,19.00
2017-10-14T03:58:13.209Z,19.92
2017-10-14T03:59:19.335Z,18.87
2017-10-14T04:00:25.777Z,20.70
2017-10-14T04:01:31.757Z,20.00
2017-10-14T04:02:37.932Z,19.98
2017-10-14T04:03:44.200Z,18.12
2017-10-14T04:04:50.177Z,19.92
2017-10-14T04:05:56.417Z,19.25
2017-10-14T04:07:02.580Z,20.90
2017-10-14T04:08:08.781Z,19.45
2017-10-14T04:09:15.104Z,21.00
2017-10-14T04:10:21.331Z,20.67
2017-10-14T04:11:27.668Z,20.42
2017-10-14T04:12:33.469Z,21.15
2017-10-14T04:13:39.662Z,19.80
2017-10-14T04:14:45.834Z,20.25
2017-10-14T04:15:52.976Z,20.05
2017-10-14T04:16:59.040Z,19.12
2017-10-14T04:18:04.978Z,18.98
2017-10-14T04:19:11.370Z,17.48
2017-10-14T04:20:18.018Z,19.67
2017-10-14T04:21:24.216Z,18.70
2017-10-14T04:22:30.508Z,19.23
2017-10-14T04:23:39.834Z,18.80
2017-10-14T04:24:46.024Z,20.05
2017-10-14T04:25:52.240Z,20.15
2017-10-14T04:26:58.448Z,20.10
2017-10-14T04:28:04.803Z,17.95
2017-10-14T04:29:10.973Z,17.65
2017-10-14T04:30:17.303Z,19.35
2017-10-14T04:31:23.493Z,19.20
2017-10-14T04:32:29.688Z,17.50
2017-10-14T04:33:35.919Z,16.98
2017-10-14T04:34:42.141Z,17.60
2017-10-14T04:35:48.317Z,17.48
2017-10-14T04:36:54.682Z,17.62
2017-10-14T04:38:00.796Z,16.67
2017-10-14T04:39:07.092Z,17.23
2017-10-14T04:40:13.311Z,17.80
2017-10-14T04:41:19.808Z,18.30
2017-10-14T04:42:26.087Z,17.52
2017-10-14T04:43:32.316Z,16.10
2017-10-14T04:44:40.507Z,17.60
2017-10-14T04:45:49.349Z,16.70
2017-10-14T04:46:55.356Z,16.37
2017-10-14T04:48:01.587Z,17.23
2017-10-14T04:49:07.745Z,17.02
2017-10-14T04:50:14.752Z,17.10
2017-10-14T04:51:20.880Z,15.82
2017-10-14T04:52:27.092Z,17.70
2017-10-14T04:53:33.299Z,17.15
2017-10-14T04:54:39.506Z,16.42
2017-10-14T04:55:45.770Z,15.70
2017-10-14T04:56:52.115Z,17.58
2017-10-14T04:57:58.268Z,16.65
2017-10-14T04:59:04.473Z,15.90
2017-10-14T05:00:10.761Z,17.62
2017-10-14T05:01:17.023Z,17.55
2017-10-14T05:02:23.180Z,16.90
2017-10-14T05:03:29.444Z,17.48
2017-10-14T05:04:36.967Z,16.62
2017-10-14T05:05:43.836Z,17.80
2017-10-14T05:06:51.115Z,16.08
2017-10-14T05:07:58.662Z,18.27
2017-10-14T05:09:05.395Z,16.80
2017-10-14T05:10:13.100Z,17.95
2017-10-14T05:11:20.687Z,16.90
2017-10-14T05:12:29.269Z,17.00
2017-10-14T05:13:37.070Z,18.25
2017-10-14T05:14:43.790Z,16.30
2017-10-14T05:15:50.759Z,16.60
2017-10-14T05:16:57.630Z,16.50
2017-10-14T05:18:05.562Z,15.80
2017-10-14T05:19:12.712Z,16.48
2017-10-14T05:20:18.856Z,16.20
2017-10-14T05:21:25.112Z,16.50
2017-10-14T05:22:32.448Z,17.05
2017-10-14T05:23:41.862Z,15.02
2017-10-14T05:24:51.415Z,15.88
2017-10-14T05:25:58.048Z,16.05
2017-10-14T05:27:05.673Z,15.88
2017-10-14T05:28:12.264Z,15.73
2017-10-14T05:29:20.539Z,16.25
2017-10-14T05:30:27.242Z,14.75
2017-10-14T05:31:34.049Z,16.25
2017-10-14T05:32:40.114Z,14.98
2017-10-14T05:33:47.261Z,15.75
2017-10-14T05:34:55.156Z,16.45
2017-10-14T05:36:02.805Z,14.98
2017-10-14T05:37:10.545Z,15.52
2017-10-14T05:38:17.634Z,15.85
2017-10-14T05:39:24.804Z,15.52
2017-10-14T05:40:32.488Z,15.32
2017-10-14T05:41:39.851Z,15.23
2017-10-14T05:42:47.275Z,13.82
2017-10-14T05:43:54.119Z,15.32
2017-10-14T05:45:00.931Z,15.48
2017-10-14T05:46:07.727Z,15.40
2017-10-14T05:47:15.349Z,15.30
2017-10-14T05:48:22.842Z,14.63
2017-10-14T05:49:30.210Z,16.50
2017-10-14T05:50:37.276Z,14.85
2017-10-14T05:51:44.101Z,14.43
2017-10-14T05:52:50.965Z,15.90
2017-10-14T05:53:58.334Z,14.45
2017-10-14T05:55:05.225Z,16.50
2017-10-14T05:56:12.073Z,14.65
2017-10-14T05:57:20.362Z,14.65
2017-10-14T05:58:27.685Z,14.48
2017-10-14T05:59:36.008Z,15.63
2017-10-14T06:00:43.760Z,16.35
2017-10-14T06:01:51.439Z,15.50
2017-10-14T06:02:59.743Z,15.35
2017-10-14T06:04:07.327Z,15.38
2017-10-14T06:05:15.517Z,15.75
2017-10-14T06:06:23.642Z,14.13
2017-10-14T06:07:31.674Z,15.90
2017-10-14T06:08:39.318Z,14.90
2017-10-14T06:09:46.539Z,16.30
2017-10-14T06:10:53.835Z,15.10
2017-10-14T06:12:02.026Z,15.57
2017-10-14T06:13:12.074Z,14.82
2017-10-14T06:14:20.522Z,16.65
2017-10-14T06:15:27.806Z,15.85
2017-10-14T06:16:35.191Z,14.82
2017-10-14T06:17:42.325Z,15.93
2017-10-14T06:18:49.706Z,14.68
2017-10-14T06:19:57.186Z,14.27
2017-10-14T06:21:04.951Z,15.90
2017-10-14T06:22:12.502Z,15.00
2017-10-14T06:23:20.533Z,15.85
2017-10-14T06:24:27.871Z,15.27
2017-10-14T06:25:35.151Z,15.00
2017-10-14T06:26:46.740Z,15.35
2017-10-14T06:27:54.035Z,15.65
2017-10-14T06:29:01.436Z,15.90
2017-10-14T06:30:08.710Z,15.65
2017-10-14T06:31:16.651Z,15.48
2017-10-14T06:32:24.391Z,14.93
2017-10-14T06:33:30.979Z,15.27
2017-10-14T06:34:38.204Z,14.48
2017-10-14T06:35:44.836Z,15.77
2017-10-14T06:36:50.952Z,14.20
2017-10-14T06:37:56.934Z,16.77
2017-10-14T06:39:03.594Z,16.15
2017-10-14T06:40:09.784Z,16.23
2017-10-14T06:41:16.076Z,14.95
2017-10-14T06:42:22.075Z,15.25
2017-10-14T06:43:29.314Z,15.02
2017-10-14T06:44:35.594Z,14.48
2017-10-14T06:45:41.844Z,13.60
2017-10-14T06:46:48.063Z,14.80
2017-10-14T06:47:54.039Z,15.75
2017-10-14T06:49:00.283Z,14.48
2017-10-14T06:50:06.477Z,14.90
2017-10-14T06:51:12.518Z,13.98
2017-10-14T06:52:18.661Z,15.88
2017-10-14T06:53:24.865Z,14.95
2017-10-14T06:54:31.171Z,14.00
2017-10-14T06:55:37.936Z,13.52
2017-10-14T06:56:44.264Z,14.07
2017-10-14T06:57:50.419Z,15.15
2017-10-14T06:58:56.631Z,14.13
2017-10-14T07:00:02.996Z,13.40
2017-10-14T07:01:09.161Z,14.10
2017-10-14T07:02:15.417Z,12.37
2017-10-14T07:03:21.578Z,13.10
2017-10-14T07:04:27.808Z,11.80
2017-10-14T07:05:36.105Z,15.18
2017-10-14T07:06:44.375Z,13.15
2017-10-14T07:07:51.092Z,14.05
2017-10-14T07:08:57.362Z,12.13
2017-10-14T07:10:04.692Z,12.93
2017-10-14T07:11:12.108Z,14.18
2017-10-14T07:12:20.072Z,14.13
2017-10-14T07:13:27.201Z,11.73
2017-10-14T07:14:35.075Z,12.25
2017-10-14T07:15:41.907Z,11.27
2017-10-14T07:16:49.853Z,11.52
2017-10-14T07:17:57.950Z,11.05
2017-10-14T07:19:04.801Z,12.95
2017-10-14T07:20:10.908Z,10.50
2017-10-14T07:21:19.298Z,9.93
2017-10-14T07:22:26.296Z,11.43
2017-10-14T07:23:35.145Z,10.75
2017-10-14T07:24:41.776Z,12.23
2017-10-14T07:25:49.271Z,9.13
2017-10-14T07:26:57.756Z,10.82
2017-10-14T07:28:04.718Z,9.57
2017-10-14T07:29:14.100Z,9.80
2017-10-14T07:30:20.553Z,9.60
2017-10-14T07:31:28.394Z,10.43
2017-10-14T07:32:36.124Z,8.88
2017-10-14T07:33:43.761Z,10.15
2017-10-14T07:34:51.220Z,9.85
2017-10-14T07:35:58.846Z,9.10
2017-10-14T07:37:05.633Z,9.68
2017-10-14T07:38:12.758Z,9.15
2017-10-14T07:39:20.000Z,9.00
2017-10-14T07:40:27.144Z,9.27
2017-10-14T07:41:34.025Z,10.43
2017-10-14T07:42:41.085Z,9.60
2017-10-14T07:43:48.221Z,8.82
2017-10-14T07:44:55.458Z,9.98
2017-10-14T07:46:02.017Z,8.80
2017-10-14T07:47:11.169Z,9.57
2017-10-14T07:48:18.495Z,8.25
2017-10-14T07:49:24.823Z,9.75
2017-10-14T07:50:30.990Z,8.88
2017-10-14T07:51:37.749Z,7.45
2017-10-14T07:52:44.518Z,9.82
2017-10-14T07:53:52.527Z,9.70
2017-10-14T07:55:00.217Z,9.70
2017-10-14T07:56:07.761Z,9.70
2017-10-14T07:57:15.209Z,9.35
2017-10-14T07:58:25.795Z,8.60
2017-10-14T07:59:33.114Z,8.15
2017-10-14T08:00:40.225Z,9.90
2017-10-14T08:01:47.772Z,8.02
2017-10-14T08:02:55.721Z,8.77
2017-10-14T08:04:03.004Z,8.50
2017-10-14T08:05:11.537Z,8.88
2017-10-14T08:06:20.592Z,9.25
2017-10-14T08:07:28.852Z,8.30
2017-10-14T08:08:36.160Z,9.55
2017-10-14T08:09:43.867Z,9.00
2017-10-14T08:10:50.742Z,7.00
2017-10-14T08:11:58.892Z,8.68
2017-10-14T08:13:06.788Z,8.70
2017-10-14T08:14:18.992Z,8.88
2017-10-14T08:15:26.947Z,9.63
2017-10-14T08:34:18.189Z,8.03
2017-10-14T08:35:26.243Z,7.85
2017-10-14T08:36:33.550Z,7.47
2017-10-14T08:37:40.394Z,7.75
2017-10-14T08:38:48.945Z,8.05
2017-10-14T08:39:57.407Z,6.95
2017-10-14T08:41:05.014Z,7.43
2017-10-14T08:42:12.844Z,7.72
2017-10-14T08:43:19.657Z,7.20
2017-10-14T08:44:28.045Z,6.47
2017-10-14T08:45:34.140Z,7.28
2017-10-14T08:46:40.319Z,7.50
2017-10-14T08:47:46.871Z,7.00
2017-10-14T08:48:53.179Z,7.25
2017-10-14T08:49:59.342Z,8.32
2017-10-14T08:51:06.008Z,8.10
2017-10-14T08:52:12.433Z,7.32
2017-10-14T08:53:18.573Z,7.62
2017-10-14T08:54:24.776Z,7.15
2017-10-14T08:55:30.916Z,7.95
2017-10-14T08:56:37.316Z,7.20
2017-10-14T08:57:44.262Z,6.90
2017-10-14T08:58:50.732Z,6.93
2017-10-14T08:59:56.708Z,7.28
2017-10-14T09:01:02.722Z,7.12
2017-10-14T09:02:08.842Z,7.60
2017-10-14T09:03:15.659Z,6.60
2017-10-14T09:04:21.791Z,7.40
2017-10-14T09:05:28.944Z,7.12
2017-10-14T09:06:35.338Z,7.12
2017-10-14T09:07:41.952Z,6.57
2017-10-14T09:08:48.958Z,7.70
2017-10-14T09:09:55.089Z,7.20
2017-10-14T09:11:01.309Z,7.90
2017-10-14T09:12:12.152Z,7.50
2017-10-14T09:13:19.110Z,7.78
2017-10-14T09:14:25.254Z,7.72
2017-10-14T09:15:32.187Z,7.85
2017-10-14T09:16:38.408Z,7.75
2017-10-14T09:17:44.624Z,7.62
2017-10-14T09:18:50.805Z,6.68
2017-10-14T09:19:56.915Z,7.10
2017-10-14T09:21:02.998Z,7.45
2017-10-14T09:22:08.964Z,7.18
2017-10-14T09:23:15.158Z,6.90
2017-10-14T09:24:21.155Z,7.30
2017-10-14T09:25:27.157Z,7.82
2017-10-14T09:26:33.160Z,7.25
2017-10-14T09:27:39.539Z,7.53
2017-10-14T09:28:45.474Z,6.28
2017-10-14T09:29:51.486Z,7.62
2017-10-14T09:30:57.682Z,6.87
2017-10-14T09:32:03.806Z,7.35
2017-10-14T09:33:10.031Z,7.25
2017-10-14T09:34:16.885Z,6.87
2017-10-14T09:35:23.641Z,6.50
2017-10-14T09:36:29.891Z,5.60
2017-10-14T09:37:36.581Z,5.32
2017-10-14T09:38:43.765Z,5.78
2017-10-14T09:39:49.924Z,5.40
2017-10-14T09:40:55.714Z,4.72
2017-10-14T09:42:02.041Z,3.90
2017-10-14T09:43:08.788Z,4.22
2017-10-14T09:44:15.925Z,4.22
2017-10-14T09:45:24.972Z,4.12
2017-10-14T09:46:31.627Z,4.75
2017-10-14T09:47:38.286Z,4.50
2017-10-14T09:48:45.364Z,3.72
2017-10-14T09:49:52.689Z,3.62
2017-10-14T09:51:00.353Z,3.40
2017-10-14T09:52:07.022Z,3.78
2017-10-14T09:53:14.213Z,3.90
2017-10-14T09:54:21.333Z,3.50
2017-10-14T09:55:27.925Z,4.18
2017-10-14T09:56:34.559Z,3.62
2017-10-14T09:57:41.352Z,3.83
2017-10-14T09:58:50.137Z,3.90
2017-10-14T09:59:56.319Z,3.40
2017-10-14T10:01:02.899Z,3.83
2017-10-14T10:02:09.686Z,3.17
2017-10-14T10:03:16.425Z,4.60
2017-10-14T10:04:24.797Z,3.30
2017-10-14T10:05:34.977Z,3.70
2017-10-14T10:06:41.211Z,4.55
2017-10-14T10:07:47.879Z,4.00
2017-10-14T10:08:54.239Z,3.80
2017-10-14T10:10:02.295Z,3.80
2017-10-14T10:11:08.654Z,3.67
2017-10-14T10:12:18.163Z,3.85
2017-10-14T10:13:25.347Z,3.95
2017-10-14T10:14:31.618Z,3.67
2017-10-14T10:15:37.938Z,4.00
2017-10-14T10:16:44.102Z,4.40
2017-10-14T10:17:50.684Z,4.25
2017-10-14T10:18:57.009Z,3.65
2017-10-14T10:20:03.361Z,4.25
2017-10-14T10:21:09.546Z,3.90
2017-10-14T10:22:15.904Z,4.07
2017-10-14T10:23:22.096Z,3.97
2017-10-14T10:24:28.776Z,4.72
2017-10-14T10:25:36.751Z,4.10
2017-10-14T10:26:44.656Z,3.83
2017-10-14T10:27:51.685Z,4.10
2017-10-14T10:28:59.231Z,3.80
2017-10-14T10:30:09.460Z,4.93
2017-10-14T10:31:15.957Z,3.72
2017-10-14T10:34:10.130Z,3.65
2017-10-14T10:35:18.731Z,3.15
2017-10-14T10:36:26.506Z,3.58
2017-10-14T10:37:36.281Z,3.70
2017-10-14T10:38:44.435Z,3.53
2017-10-14T10:39:53.907Z,3.70
2017-10-14T10:41:02.860Z,3.20
2017-10-14T10:42:10.471Z,3.60
2017-10-14T10:43:19.367Z,3.72
2017-10-14T10:44:27.805Z,3.25
2017-10-14T10:45:35.164Z,3.70
2017-10-14T10:46:41.667Z,3.53
2017-10-14T10:47:49.600Z,4.07
2017-10-14T10:48:56.551Z,3.60
2017-10-14T10:50:03.862Z,3.95
2017-10-14T10:51:12.001Z,4.15
2017-10-14T10:52:19.522Z,3.47
2017-10-14T10:53:26.972Z,3.87
2017-10-14T10:54:33.885Z,3.80
2017-10-14T10:55:40.758Z,3.15
2017-10-14T10:56:48.943Z,3.42
2017-10-14T10:57:55.626Z,4.50
2017-10-14T10:59:03.781Z,4.28
2017-10-14T11:00:12.536Z,3.80
2017-10-14T11:01:19.870Z,3.72
2017-10-14T11:02:27.858Z,4.12
2017-10-14T11:03:35.971Z,4.10
2017-10-14T11:04:43.919Z,4.03
2017-10-14T11:05:51.467Z,3.70
2017-10-14T11:06:59.630Z,3.53
2017-10-14T11:08:06.690Z,3.90
2017-10-14T11:09:14.198Z,3.47
2017-10-14T11:10:21.619Z,3.67
2017-10-14T11:11:30.976Z,3.47
2017-10-14T11:12:38.693Z,3.65
2017-10-14T11:13:46.038Z,3.80
2017-10-14T11:14:53.543Z,4.05
2017-10-14T11:15:59.698Z,3.78
2017-10-14T11:17:07.263Z,3.75
2017-10-14T11:18:13.422Z,4.10
2017-10-14T11:19:21.053Z,4.37
2017-10-14T11:20:28.618Z,4.37
2017-10-14T11:21:36.982Z,4.10
2017-10-14T11:22:45.747Z,3.72
2017-10-14T11:23:56.302Z,3.72
2017-10-14T11:25:04.031Z,4.05
2017-10-14T11:26:13.457Z,3.28
2017-10-14T11:27:21.662Z,3.42
2017-10-14T11:28:28.801Z,3.28
2017-10-14T11:29:36.508Z,3.12
2017-10-14T11:30:43.593Z,3.15
2017-10-14T11:31:52.409Z,3.12
2017-10-14T11:32:59.747Z,2.97
2017-10-14T11:34:07.728Z,3.30
2017-10-14T11:35:14.328Z,3.20
2017-10-14T11:36:22.178Z,4.00
2017-10-14T11:37:28.670Z,3.85
2017-10-14T11:38:36.709Z,3.17
2017-10-14T11:39:43.725Z,3.65
2017-10-14T11:40:50.771Z,3.22
2017-10-14T11:41:57.079Z,3.20
2017-10-14T11:43:03.901Z,3.28
2017-10-14T11:44:12.398Z,2.85
2017-10-14T11:45:18.772Z,3.28
2017-10-14T11:46:25.036Z,3.50
2017-10-14T11:47:33.607Z,3.50
2017-10-14T11:48:40.259Z,3.47
2017-10-14T11:49:46.398Z,3.12
2017-10-14T11:50:52.935Z,3.40
2017-10-14T11:51:59.143Z,3.37
2017-10-14T11:53:05.627Z,2.90
2017-10-14T11:54:12.298Z,3.47
2017-10-14T11:55:19.162Z,3.05
2017-10-14T11:56:28.261Z,3.30
2017-10-14T11:57:34.525Z,3.75
2017-10-14T11:58:41.381Z,3.40
2017-10-14T11:59:47.672Z,3.53
2017-10-14T12:00:54.856Z,3.35
2017-10-14T12:02:03.782Z,3.53
2017-10-14T12:03:10.207Z,3.55
2017-10-14T12:04:17.679Z,3.58
2017-10-14T12:05:25.644Z,3.00
2017-10-14T12:06:32.387Z,3.65
2017-10-14T12:07:38.521Z,3.00
2017-10-14T12:08:46.625Z,3.45
2017-10-14T12:09:56.848Z,3.33
2017-10-14T12:11:04.336Z,3.10
2017-10-14T12:12:10.680Z,3.33
2017-10-14T12:13:17.360Z,3.22
2017-10-14T12:14:25.444Z,2.97
2017-10-14T12:15:32.615Z,3.10
2017-10-14T12:16:38.900Z,3.15
2017-10-14T12:17:46.007Z,2.90
2017-10-14T12:18:54.695Z,3.00
2017-10-14T12:20:01.114Z,2.80
2017-10-14T12:21:07.543Z,2.75
2017-10-14T12:22:15.502Z,2.90
2017-10-14T12:23:22.192Z,2.85
2017-10-14T12:24:28.670Z,3.20
2017-10-14T12:25:34.974Z,2.45
2017-10-14T12:26:46.380Z,2.92
2017-10-14T12:27:53.361Z,3.20
2017-10-14T12:29:00.813Z,2.78
2017-10-14T12:30:09.334Z,3.10
2017-10-14T12:31:15.880Z,3.08
2017-10-14T12:32:22.415Z,3.12
2017-10-14T12:33:29.683Z,2.60
2017-10-14T12:34:37.186Z,3.05
2017-10-14T12:35:43.373Z,3.15
2017-10-14T12:36:49.819Z,3.40
2017-10-14T12:37:56.921Z,3.33
2017-10-14T12:39:03.249Z,2.90
2017-10-14T12:40:09.533Z,3.25
2017-10-14T12:41:21.690Z,2.50
2017-10-14T12:42:32.277Z,3.22
2017-10-14T12:43:40.672Z,3.15
2017-10-14T12:44:48.828Z,2.75
2017-10-14T12:45:56.363Z,2.75
2017-10-14T12:47:02.728Z,3.10
2017-10-14T12:48:11.784Z,3.10
2017-10-14T12:49:18.098Z,2.87
2017-10-14T12:50:25.320Z,2.70
2017-10-14T12:51:31.783Z,2.83
2017-10-14T12:52:43.345Z,2.65
2017-10-14T12:53:50.747Z,2.80
2017-10-14T12:54:58.518Z,3.15
2017-10-14T12:56:07.714Z,2.70
2017-10-14T12:57:14.546Z,3.30
2017-10-14T12:58:25.145Z,2.90
2017-10-14T12:59:36.401Z,2.83
2017-10-14T13:00:53.274Z,2.70
2017-10-14T13:01:59.777Z,2.70
2017-10-14T13:03:06.570Z,2.72
2017-10-14T13:04:19.464Z,2.67
2017-10-14T13:05:28.707Z,2.97
2017-10-14T13:06:37.382Z,3.15
2017-10-14T13:07:44.176Z,2.70
2017-10-14T13:08:50.856Z,3.15
2017-10-14T13:09:58.207Z,2.92
2017-10-14T13:11:04.172Z,2.72
2017-10-14T13:12:11.514Z,2.70
2017-10-14T13:13:19.062Z,2.80
2017-10-14T13:14:27.590Z,3.10
2017-10-14T13:15:34.281Z,2.95
2017-10-14T13:16:40.677Z,3.05
2017-10-14T13:17:48.130Z,2.70
2017-10-14T13:18:54.945Z,3.03
2017-10-14T13:20:01.335Z,2.60
2017-10-14T13:21:07.299Z,3.03
2017-10-14T13:22:13.375Z,3.30
2017-10-14T13:23:20.327Z,3.20
2017-10-14T13:24:27.138Z,3.00
2017-10-14T13:25:36.165Z,3.37
2017-10-14T13:26:42.294Z,3.07
2017-10-14T13:27:51.575Z,3.40
2017-10-14T13:28:58.544Z,3.17
2017-10-14T13:30:09.141Z,2.77
2017-10-14T13:31:18.893Z,3.03
2017-10-14T13:32:26.066Z,2.70
2017-10-14T13:33:38.189Z,3.40
2017-10-14T13:34:45.048Z,2.97
2017-10-14T13:35:58.287Z,2.90
2017-10-14T13:37:12.561Z,3.00
2017-10-14T13:38:20.593Z,2.70
2017-10-14T13:39:26.779Z,3.57
2017-10-14T13:40:34.989Z,3.40
2017-10-14T13:41:43.082Z,2.90
2017-10-14T13:42:49.271Z,3.20
2017-10-14T13:43:56.326Z,2.87
2017-10-14T13:45:05.060Z,2.90
2017-10-14T13:46:12.157Z,2.33
2017-10-14T13:47:18.204Z,3.03
2017-10-14T13:48:24.374Z,3.00
2017-10-14T13:49:32.332Z,2.60
2017-10-14T13:50:44.706Z,2.97
2017-10-14T13:51:51.521Z,2.70
2017-10-14T13:52:58.562Z,2.93
2017-10-14T13:54:04.986Z,3.30
2017-10-14T13:55:21.416Z,3.10
2017-10-14T13:56:27.575Z,2.80
2017-10-14T13:57:34.538Z,2.70
2017-10-14T13:58:40.715Z,2.83
2017-10-14T13:59:55.809Z,2.43
2017-10-14T14:01:02.226Z,3.43
2017-10-14T14:02:08.303Z,2.97
2017-10-14T14:03:14.568Z,3.25
2017-10-14T14:04:20.829Z,2.60
2017-10-14T14:22:56.527Z,3.10
2017-10-14T14:24:03.125Z,2.78
2017-10-14T14:25:09.390Z,2.75
2017-10-14T14:26:15.745Z,2.87
2017-10-14T14:27:25.971Z,3.28
2017-10-14T14:28:32.449Z,3.15
2017-10-14T14:29:39.671Z,3.23
2017-10-14T14:30:45.989Z,3.20
2017-10-14T14:31:52.900Z,3.28
2017-10-14T14:33:01.454Z,2.90
2017-10-14T14:34:08.099Z,2.80
2017-10-14T14:35:14.455Z,3.50
2017-10-14T14:36:20.869Z,2.97
2017-10-14T14:37:35.217Z,2.92
2017-10-14T14:38:41.480Z,3.08
2017-10-14T14:39:48.257Z,3.30
2017-10-14T14:40:54.570Z,3.45
2017-10-14T14:42:04.803Z,3.10
2017-10-14T14:43:11.505Z,3.75
2017-10-14T14:44:18.378Z,2.78
2017-10-14T14:45:25.057Z,3.33
2017-10-14T14:46:31.910Z,3.10
2017-10-14T14:47:38.712Z,3.20
2017-10-14T14:48:51.285Z,3.10
2017-10-14T14:50:00.787Z,2.80
2017-10-14T14:51:08.115Z,3.25
2017-10-14T14:52:15.508Z,2.72
2017-10-14T14:53:25.096Z,2.70
2017-10-14T14:54:31.487Z,2.70
2017-10-14T14:55:37.931Z,3.20
2017-10-14T14:56:44.189Z,3.03
2017-10-14T14:57:50.610Z,3.10
2017-10-14T14:58:57.071Z,2.70
2017-10-14T15:00:03.788Z,3.10
2017-10-14T15:01:10.148Z,3.05
2017-10-14T15:02:16.666Z,3.20
2017-10-14T15:03:23.145Z,2.60
2017-10-14T15:04:29.968Z,3.20
2017-10-14T15:05:36.292Z,2.83
2017-10-14T15:06:42.791Z,3.28
2017-10-14T15:07:49.288Z,2.97
2017-10-14T15:08:55.595Z,3.40
2017-10-14T15:10:03.064Z,3.30
2017-10-14T15:11:09.388Z,3.17
2017-10-14T15:12:18.571Z,3.05
2017-10-14T15:13:25.089Z,3.35
2017-10-14T15:14:31.448Z,3.12